Weston, Illinois
Current Conditions -  °F | °C
As of 6:55 PM on Tuesday 21 Oct 2014 (Local Time) from KPNT Reporting Station
Scattered Clouds Scattered Clouds  
Wind Chill: 44°   Ceiling: Unl
Heat Index: 48°   Visibility: 10mi
Dew Point: 40°   Wind: 10mph
Humidity: 73%   Direction: 50°NE
Pressure: 30.22"   Gusts: NA
Location:  40.7409°N, 88.7189°W
Report Text: KPNT 212355Z AUTO 05009KT 10SM SCT041 09/04 A3022 RMK AO2 6//// T00900043
Loading
Personal Weather Stations






























Interactive Weather Map
Tropical Storm Tracking
New forecast layout! Learn more

10-Day Weather Forecast

Advertisements
Track Severe Weather on mobile